Jennifer Turecamo — WDD4175 — position and weather

sailwx.info

Track history (hours):
 
Tides and Currents Weather Stations Pressure Air Temp Water Temp Dewpoint Dewpoint Depression Visibility Wind Speed Wind Dir Waves Ship Positions

Jennifer Turecamo

Owner: MORAN TOWING CORPORATION, New Canaan, CT. More information available from US FCC via Universal Licensing System and Coast Guard Vessel Documentation Center.

Last reported at 2018-Jan-22 02:29 UTC. Time now 2018-Jan-22 02:49 UTC.
Position N 40°56' W 073°54'.

Length 40 m; draft 5.3 m.

Type: Tug. MMSI: 367141250.

Date/timePositionNaut miles runAvg speedWind from/ knotsBaromVisibWave heightAir tempDewpointWater temp
2018-Jan-22 02:29N 40°56' W 073°54'0 0.0
2018-Jan-22 01:59N 40°56' W 073°54'0 0.0
2018-Jan-22 01:29N 40°56' W 073°54'0 0.0
2018-Jan-22 00:47N 40°56' W 073°54'0 0.0
2018-Jan-22 00:20N 40°56' W 073°54'0 0.0
2018-Jan-21 23:59N 40°56' W 073°54'0 0.0
2018-Jan-21 23:29N 40°56' W 073°54'0 0.0
2018-Jan-21 22:56N 40°56' W 073°54'0 0.0
2018-Jan-21 22:29N 40°56' W 073°54'0 0.0
2018-Jan-21 21:56N 40°56' W 073°54'0 0.0
2018-Jan-21 21:26N 40°56' W 073°54'0 0.0
2018-Jan-21 20:56N 40°56' W 073°54'0 0.0
2018-Jan-21 20:26N 40°56' W 073°54'0 0.0
2018-Jan-21 19:56N 40°56' W 073°54'0 0.0
2018-Jan-21 19:26N 40°56' W 073°54'0 0.0
2018-Jan-21 18:59N 40°56' W 073°54'0 0.0
2018-Jan-21 18:20N 40°56' W 073°54'0 0.0
2018-Jan-21 17:12N 40°56' W 073°54'0 0.1
2018-Jan-21 17:00N 40°56' W 073°54'0 0.0
2018-Jan-21 15:42N 40°56' W 073°54'0 0.0
2018-Jan-21 15:30N 40°56' W 073°54'0 0.0
2018-Jan-21 15:00N 40°56' W 073°54'0 0.0
2018-Jan-21 13:54N 40°56' W 073°54'0 0.0
2018-Jan-21 13:12N 40°56' W 073°54'0 0.0
2018-Jan-21 12:48N 40°56' W 073°54'0 0.0
2018-Jan-21 11:20N 40°56' W 073°54'0 0.0
2018-Jan-21 10:56N 40°56' W 073°54'0 0.0
2018-Jan-21 10:20N 40°56' W 073°54'0 0.0
2018-Jan-21 09:56N 40°56' W 073°54'0 0.0
2018-Jan-21 09:29N 40°56' W 073°54'0 0.0
2018-Jan-21 08:56N 40°56' W 073°54'0 0.0
2018-Jan-21 08:20N 40°56' W 073°54'0 0.0
2018-Jan-21 07:44N 40°56' W 073°54'0 0.0
2018-Jan-21 07:29N 40°56' W 073°54'0 0.0
2018-Jan-21 06:56N 40°56' W 073°54'0 0.0
2018-Jan-21 06:23N 40°56' W 073°54'0 0.0
2018-Jan-21 05:56N 40°56' W 073°54'0 0.0
2018-Jan-21 05:02N 40°56' W 073°54'0 0.0
2018-Jan-21 04:32N 40°56' W 073°54'0 0.0
2018-Jan-21 04:11N 40°56' W 073°54'0 0.0
2018-Jan-21 03:38N 40°56' W 073°54'0 0.0
2018-Jan-21 03:20N 40°56' W 073°54'0 0.0
2018-Jan-21 02:59N 40°56' W 073°54'0 0.0
2018-Jan-21 02:02N 40°56' W 073°54'0 0.0
2018-Jan-21 01:56N 40°56' W 073°54'0 0.0
2018-Jan-20 21:50N 40°56' W 073°54'0 0.0
2018-Jan-20 21:26N 40°56' W 073°54'0 0.0
2018-Jan-20 20:56N 40°56' W 073°54'0 0.0
2018-Jan-20 20:26N 40°56' W 073°54'0 0.0
2018-Jan-20 19:56N 40°56' W 073°54'0 0.0
2018-Jan-20 19:20N 40°56' W 073°54'0 0.0
2018-Jan-20 18:56N 40°56' W 073°54'0 0.0
2018-Jan-20 18:26N 40°56' W 073°54'0 0.0
2018-Jan-20 17:50N 40°56' W 073°54'0 0.0
2018-Jan-20 17:20N 40°56' W 073°54'0 0.0
2018-Jan-20 16:50N 40°56' W 073°54'0 0.0
2018-Jan-20 16:14N 40°56' W 073°54'0 0.0
2018-Jan-20 15:44N 40°56' W 073°54'0 0.0
2018-Jan-20 15:26N 40°56' W 073°54'0 0.0
2018-Jan-20 14:50N 40°56' W 073°54'0 0.0
2018-Jan-20 14:26N 40°56' W 073°54'0 0.0
2018-Jan-20 13:56N 40°56' W 073°54'0 0.0
2018-Jan-20 13:26N 40°56' W 073°54'0 0.0
2018-Jan-20 12:50N 40°56' W 073°54'0 0.0
2018-Jan-20 12:20N 40°56' W 073°54'0 0.0
2018-Jan-20 11:56N 40°56' W 073°54'0 0.0
2018-Jan-20 11:02N 40°56' W 073°54'0 0.1
2018-Jan-20 10:56N 40°56' W 073°54'0 0.0
2018-Jan-20 10:26N 40°56' W 073°54'0 0.0
2018-Jan-20 02:59N 40°56' W 073°54'0 0.0
2018-Jan-20 02:25N 40°56' W 073°54'0 1.0
2018-Jan-20 02:00N 40°55' W 073°55'1 1.1
2018-Jan-20 01:29N 40°55' W 073°55'2 3.5
2018-Jan-20 01:00N 40°53' W 073°55'612.2
2018-Jan-20 00:30N 40°48' W 073°59'5 9.8
2018-Jan-20 00:00N 40°43' W 074°01'5 9.3
2018-Jan-19 23:30N 40°39' W 074°04'4 7.2
2018-Jan-19 22:59N 40°39' W 074°09'1 1.9
2018-Jan-19 22:30N 40°38' W 074°08'0 0.0
2018-Jan-19 21:55N 40°38' W 074°08'0 0.0
2018-Jan-19 21:25N 40°38' W 074°08'0 0.4
2018-Jan-19 21:00N 40°39' W 074°08'5 9.5
2018-Jan-19 20:30N 40°41' W 074°02'713.3
2018-Jan-19 20:01N 40°47' W 073°60'713.4
2018-Jan-19 19:30N 40°53' W 073°56'2 3.1
2018-Jan-19 18:59N 40°55' W 073°55'0 0.2
2018-Jan-19 18:12N 40°55' W 073°55'0 0.1
2018-Jan-19 17:57N 40°55' W 073°55'0 0.0
2018-Jan-19 17:27N 40°55' W 073°55'0 0.0
2018-Jan-19 16:54N 40°55' W 073°55'0 0.0
2018-Jan-19 16:30N 40°55' W 073°55'0 0.8
2018-Jan-19 16:00N 40°55' W 073°55'4 8.3
2018-Jan-19 15:30N 40°51' W 073°57'5 9.7
2018-Jan-19 15:00N 40°47' W 073°60'5 9.4
2018-Jan-19 14:30N 40°42' W 074°02'4 8.8
2018-Jan-19 14:00N 40°38' W 074°03'4 9.0
2018-Jan-19 13:30N 40°34' W 074°02'5 8.4
2018-Jan-19 12:58N 40°30' W 073°57'4 8.0
2018-Jan-19 12:29N 40°27' W 073°55'2 4.4
2018-Jan-19 11:56N 40°25' W 073°54'2 2.6
2018-Jan-19 11:20N 40°23' W 073°54'29 6.0
2018-Jan-19 06:24N 39°54' W 073°58'3 6.1
2018-Jan-19 05:57N 39°51' W 073°59'3 6.0
2018-Jan-19 05:27N 39°48' W 073°59'3 5.9
2018-Jan-19 05:00N 39°46' W 073°60'3 5.7
2018-Jan-19 04:28N 39°43' W 074°01'3 5.6
2018-Jan-19 03:54N 39°40' W 074°02'2 6.0
2018-Jan-19 03:29N 39°37' W 074°03'3 5.9
2018-Jan-19 02:58N 39°34' W 074°04'3 6.1
2018-Jan-19 02:30N 39°32' W 074°05'  
Track history (hours):
 
Tides and Currents Weather Stations Pressure Air Temp Water Temp Dewpoint Dewpoint Depression Visibility Wind Speed Wind Dir Waves Ship Positions

Jennifer Turecamo

Owner: MORAN TOWING CORPORATION, New Canaan, CT. More information available from US FCC via Universal Licensing System and Coast Guard Vessel Documentation Center.

Last reported at 2018-Jan-22 02:29 UTC. Time now 2018-Jan-22 02:49 UTC.
Position N 40°56' W 073°54'.

Length 40 m; draft 5.3 m.

Type: Tug. MMSI: 367141250.

Date/timePositionNaut miles runAvg speedWind from/ knotsBaromVisibWave heightAir tempDewpointWater temp
2018-Jan-22 02:29N 40°56' W 073°54'0 0.0
2018-Jan-22 01:59N 40°56' W 073°54'0 0.0
2018-Jan-22 01:29N 40°56' W 073°54'0 0.0
2018-Jan-22 00:47N 40°56' W 073°54'0 0.0
2018-Jan-22 00:20N 40°56' W 073°54'0 0.0
2018-Jan-21 23:59N 40°56' W 073°54'0 0.0
2018-Jan-21 23:29N 40°56' W 073°54'0 0.0
2018-Jan-21 22:56N 40°56' W 073°54'0 0.0
2018-Jan-21 22:29N 40°56' W 073°54'0 0.0
2018-Jan-21 21:56N 40°56' W 073°54'0 0.0
2018-Jan-21 21:26N 40°56' W 073°54'0 0.0
2018-Jan-21 20:56N 40°56' W 073°54'0 0.0
2018-Jan-21 20:26N 40°56' W 073°54'0 0.0
2018-Jan-21 19:56N 40°56' W 073°54'0 0.0
2018-Jan-21 19:26N 40°56' W 073°54'0 0.0
2018-Jan-21 18:59N 40°56' W 073°54'0 0.0
2018-Jan-21 18:20N 40°56' W 073°54'0 0.0
2018-Jan-21 17:12N 40°56' W 073°54'0 0.1
2018-Jan-21 17:00N 40°56' W 073°54'0 0.0
2018-Jan-21 15:42N 40°56' W 073°54'0 0.0
2018-Jan-21 15:30N 40°56' W 073°54'0 0.0
2018-Jan-21 15:00N 40°56' W 073°54'0 0.0
2018-Jan-21 13:54N 40°56' W 073°54'0 0.0
2018-Jan-21 13:12N 40°56' W 073°54'0 0.0
2018-Jan-21 12:48N 40°56' W 073°54'0 0.0
2018-Jan-21 11:20N 40°56' W 073°54'0 0.0
2018-Jan-21 10:56N 40°56' W 073°54'0 0.0
2018-Jan-21 10:20N 40°56' W 073°54'0 0.0
2018-Jan-21 09:56N 40°56' W 073°54'0 0.0
2018-Jan-21 09:29N 40°56' W 073°54'0 0.0
2018-Jan-21 08:56N 40°56' W 073°54'0 0.0
2018-Jan-21 08:20N 40°56' W 073°54'0 0.0
2018-Jan-21 07:44N 40°56' W 073°54'0 0.0
2018-Jan-21 07:29N 40°56' W 073°54'0 0.0
2018-Jan-21 06:56N 40°56' W 073°54'0 0.0
2018-Jan-21 06:23N 40°56' W 073°54'0 0.0
2018-Jan-21 05:56N 40°56' W 073°54'0 0.0
2018-Jan-21 05:02N 40°56' W 073°54'0 0.0
2018-Jan-21 04:32N 40°56' W 073°54'0 0.0
2018-Jan-21 04:11N 40°56' W 073°54'0 0.0
2018-Jan-21 03:38N 40°56' W 073°54'0 0.0
2018-Jan-21 03:20N 40°56' W 073°54'0 0.0
2018-Jan-21 02:59N 40°56' W 073°54'0 0.0
2018-Jan-21 02:02N 40°56' W 073°54'0 0.0
2018-Jan-21 01:56N 40°56' W 073°54'0 0.0
2018-Jan-20 21:50N 40°56' W 073°54'0 0.0
2018-Jan-20 21:26N 40°56' W 073°54'0 0.0
2018-Jan-20 20:56N 40°56' W 073°54'0 0.0
2018-Jan-20 20:26N 40°56' W 073°54'0 0.0
2018-Jan-20 19:56N 40°56' W 073°54'0 0.0
2018-Jan-20 19:20N 40°56' W 073°54'0 0.0
2018-Jan-20 18:56N 40°56' W 073°54'0 0.0
2018-Jan-20 18:26N 40°56' W 073°54'0 0.0
2018-Jan-20 17:50N 40°56' W 073°54'0 0.0
2018-Jan-20 17:20N 40°56' W 073°54'0 0.0
2018-Jan-20 16:50N 40°56' W 073°54'0 0.0
2018-Jan-20 16:14N 40°56' W 073°54'0 0.0
2018-Jan-20 15:44N 40°56' W 073°54'0 0.0
2018-Jan-20 15:26N 40°56' W 073°54'0 0.0
2018-Jan-20 14:50N 40°56' W 073°54'0 0.0
2018-Jan-20 14:26N 40°56' W 073°54'0 0.0
2018-Jan-20 13:56N 40°56' W 073°54'0 0.0
2018-Jan-20 13:26N 40°56' W 073°54'0 0.0
2018-Jan-20 12:50N 40°56' W 073°54'0 0.0
2018-Jan-20 12:20N 40°56' W 073°54'0 0.0
2018-Jan-20 11:56N 40°56' W 073°54'0 0.0
2018-Jan-20 11:02N 40°56' W 073°54'0 0.1
2018-Jan-20 10:56N 40°56' W 073°54'0 0.0
2018-Jan-20 10:26N 40°56' W 073°54'0 0.0
2018-Jan-20 02:59N 40°56' W 073°54'0 0.0
2018-Jan-20 02:25N 40°56' W 073°54'0 1.0
2018-Jan-20 02:00N 40°55' W 073°55'1 1.1
2018-Jan-20 01:29N 40°55' W 073°55'2 3.5
2018-Jan-20 01:00N 40°53' W 073°55'612.2
2018-Jan-20 00:30N 40°48' W 073°59'5 9.8
2018-Jan-20 00:00N 40°43' W 074°01'5 9.3
2018-Jan-19 23:30N 40°39' W 074°04'4 7.2
2018-Jan-19 22:59N 40°39' W 074°09'1 1.9
2018-Jan-19 22:30N 40°38' W 074°08'0 0.0
2018-Jan-19 21:55N 40°38' W 074°08'0 0.0
2018-Jan-19 21:25N 40°38' W 074°08'0 0.4
2018-Jan-19 21:00N 40°39' W 074°08'5 9.5
2018-Jan-19 20:30N 40°41' W 074°02'713.3
2018-Jan-19 20:01N 40°47' W 073°60'713.4
2018-Jan-19 19:30N 40°53' W 073°56'2 3.1
2018-Jan-19 18:59N 40°55' W 073°55'0 0.2
2018-Jan-19 18:12N 40°55' W 073°55'0 0.1
2018-Jan-19 17:57N 40°55' W 073°55'0 0.0
2018-Jan-19 17:27N 40°55' W 073°55'0 0.0
2018-Jan-19 16:54N 40°55' W 073°55'0 0.0
2018-Jan-19 16:30N 40°55' W 073°55'0 0.8
2018-Jan-19 16:00N 40°55' W 073°55'4 8.3
2018-Jan-19 15:30N 40°51' W 073°57'5 9.7
2018-Jan-19 15:00N 40°47' W 073°60'5 9.4
2018-Jan-19 14:30N 40°42' W 074°02'4 8.8
2018-Jan-19 14:00N 40°38' W 074°03'4 9.0
2018-Jan-19 13:30N 40°34' W 074°02'5 8.4
2018-Jan-19 12:58N 40°30' W 073°57'4 8.0
2018-Jan-19 12:29N 40°27' W 073°55'2 4.4
2018-Jan-19 11:56N 40°25' W 073°54'2 2.6
2018-Jan-19 11:20N 40°23' W 073°54'29 6.0
2018-Jan-19 06:24N 39°54' W 073°58'3 6.1
2018-Jan-19 05:57N 39°51' W 073°59'3 6.0
2018-Jan-19 05:27N 39°48' W 073°59'3 5.9
2018-Jan-19 05:00N 39°46' W 073°60'3 5.7
2018-Jan-19 04:28N 39°43' W 074°01'3 5.6
2018-Jan-19 03:54N 39°40' W 074°02'2 6.0
2018-Jan-19 03:29N 39°37' W 074°03'3 5.9
2018-Jan-19 02:58N 39°34' W 074°04'3 6.1
2018-Jan-19 02:30N 39°32' W 074°05'  

Dump ship's entire track history